sensor_id;sensor_type;location;lat;lon;timestamp;P1;durP1;ratioP1;P2;durP2;ratioP2
74483;SDS011;62942;52.462;10.846;2023-07-31T00:00:56;4.2;;;8.9;;
74483;SDS011;62942;52.462;10.846;2023-07-31T00:02:06;4.1;;;8.4;;
74483;SDS011;62942;52.462;10.846;2023-07-31T00:03:16;4.3;;;9.5;;
74483;SDS011;62942;52.462;10.846;2023-07-31T00:04:26;4.3;;;10.7;;
74483;SDS011;62942;52.462;10.846;2023-07-31T00:05:36;4.1;;;9.1;;
74483;SDS011;62942;52.462;10.846;2023-07-31T00:06:46;4.2;;;9.7;;
74483;SDS011;62942;52.462;10.846;2023-07-31T00:07:46;4.3;;;10.4;;
74483;SDS011;62942;52.462;10.846;2023-07-31T00:08:56;4.3;;;9.2;;
74483;SDS011;62942;52.462;10.846;2023-07-31T00:09:56;4.5;;;9.5;;
74483;SDS011;62942;52.462;10.846;2023-07-31T00:10:56;4.2;;;7.8;;
74483;SDS011;62942;52.462;10.846;2023-07-31T00:12:06;4.2;;;10.3;;
74483;SDS011;62942;52.462;10.846;2023-07-31T00:13:06;4.5;;;7.7;;
74483;SDS011;62942;52.462;10.846;2023-07-31T00:14:16;4.4;;;8.8;;
74483;SDS011;62942;52.462;10.846;2023-07-31T00:15:16;4.7;;;11.7;;
74483;SDS011;62942;52.462;10.846;2023-07-31T00:16:26;4.3;;;9.5;;
74483;SDS011;62942;52.462;10.846;2023-07-31T00:17:36;4.3;;;9;;
74483;SDS011;62942;52.462;10.846;2023-07-31T00:18:36;4.3;;;7.2;;
74483;SDS011;62942;52.462;10.846;2023-07-31T00:19:46;4.3;;;10;;
74483;SDS011;62942;52.462;10.846;2023-07-31T00:20:46;4.3;;;10.6;;
74483;SDS011;62942;52.462;10.846;2023-07-31T00:21:56;4;;;7.6;;
74483;SDS011;62942;52.462;10.846;2023-07-31T00:22:56;4.2;;;9.6;;
74483;SDS011;62942;52.462;10.846;2023-07-31T00:23:56;4.1;;;8.8;;
74483;SDS011;62942;52.462;10.846;2023-07-31T00:25:06;3.7;;;7.4;;
74483;SDS011;62942;52.462;10.846;2023-07-31T00:26:16;3.3;;;5.9;;
74483;SDS011;62942;52.462;10.846;2023-07-31T00:27:26;3.2;;;5.9;;
74483;SDS011;62942;52.462;10.846;2023-07-31T00:28:36;3.2;;;5.6;;
74483;SDS011;62942;52.462;10.846;2023-07-31T00:29:36;3.1;;;8;;
74483;SDS011;62942;52.462;10.846;2023-07-31T00:30:36;3.2;;;6.7;;
74483;SDS011;62942;52.462;10.846;2023-07-31T00:31:46;3;;;6.3;;
74483;SDS011;62942;52.462;10.846;2023-07-31T00:32:46;3.3;;;9.4;;
74483;SDS011;62942;52.462;10.846;2023-07-31T00:33:56;3.1;;;6.8;;
74483;SDS011;62942;52.462;10.846;2023-07-31T00:34:56;3;;;5.7;;
74483;SDS011;62942;52.462;10.846;2023-07-31T00:36:06;3.2;;;6.3;;
74483;SDS011;62942;52.462;10.846;2023-07-31T00:37:16;3.1;;;7.2;;
74483;SDS011;62942;52.462;10.846;2023-07-31T00:38:26;3.1;;;5.7;;
74483;SDS011;62942;52.462;10.846;2023-07-31T00:39:26;3.1;;;6.5;;
74483;SDS011;62942;52.462;10.846;2023-07-31T00:40:26;3;;;7.3;;
74483;SDS011;62942;52.462;10.846;2023-07-31T00:41:36;3.3;;;7.4;;
74483;SDS011;62942;52.462;10.846;2023-07-31T00:42:36;3;;;6.6;;
74483;SDS011;62942;52.462;10.846;2023-07-31T00:43:46;3.4;;;6.5;;
74483;SDS011;62942;52.462;10.846;2023-07-31T00:44:46;3.4;;;6.1;;
74483;SDS011;62942;52.462;10.846;2023-07-31T00:45:46;3.3;;;5.6;;
74483;SDS011;62942;52.462;10.846;2023-07-31T00:46:56;3.6;;;7.7;;
74483;SDS011;62942;52.462;10.846;2023-07-31T00:47:56;3.5;;;7;;
74483;SDS011;62942;52.462;10.846;2023-07-31T00:49:06;3.2;;;6.9;;
74483;SDS011;62942;52.462;10.846;2023-07-31T00:50:06;3.1;;;6;;
74483;SDS011;62942;52.462;10.846;2023-07-31T00:51:16;3.3;;;6.2;;
74483;SDS011;62942;52.462;10.846;2023-07-31T00:52:26;3.5;;;6.3;;
74483;SDS011;62942;52.462;10.846;2023-07-31T00:53:26;3.3;;;6.6;;
74483;SDS011;62942;52.462;10.846;2023-07-31T00:54:36;3.5;;;6.8;;
74483;SDS011;62942;52.462;10.846;2023-07-31T00:55:46;3.3;;;7;;
74483;SDS011;62942;52.462;10.846;2023-07-31T00:56:56;3.4;;;6.7;;
74483;SDS011;62942;52.462;10.846;2023-07-31T00:58:06;3;;;5.1;;
74483;SDS011;62942;52.462;10.846;2023-07-31T00:59:06;3.2;;;5.5;;
74483;SDS011;62942;52.462;10.846;2023-07-31T01:00:16;3.4;;;6.5;;
74483;SDS011;62942;52.462;10.846;2023-07-31T01:01:26;3.2;;;5.6;;
74483;SDS011;62942;52.462;10.846;2023-07-31T01:02:36;3.4;;;5.6;;
74483;SDS011;62942;52.462;10.846;2023-07-31T01:03:36;3.3;;;7.2;;
74483;SDS011;62942;52.462;10.846;2023-07-31T01:04:46;3.2;;;6;;
74483;SDS011;62942;52.462;10.846;2023-07-31T01:05:49;3.1;;;6.9;;
74483;SDS011;62942;52.462;10.846;2023-07-31T01:06:48;3.4;;;5.6;;
74483;SDS011;62942;52.462;10.846;2023-07-31T01:07:57;3.2;;;5.3;;
74483;SDS011;62942;52.462;10.846;2023-07-31T01:08:58;3.1;;;5.6;;
74483;SDS011;62942;52.462;10.846;2023-07-31T01:10:07;3.4;;;8.2;;
74483;SDS011;62942;52.462;10.846;2023-07-31T01:11:08;3.1;;;6.1;;
74483;SDS011;62942;52.462;10.846;2023-07-31T01:12:06;3.3;;;6.4;;
74483;SDS011;62942;52.462;10.846;2023-07-31T01:13:16;3.3;;;6.8;;
74483;SDS011;62942;52.462;10.846;2023-07-31T01:14:26;3.1;;;7.3;;
74483;SDS011;62942;52.462;10.846;2023-07-31T01:15:36;3.2;;;6.6;;
74483;SDS011;62942;52.462;10.846;2023-07-31T01:16:36;3.1;;;6;;
74483;SDS011;62942;52.462;10.846;2023-07-31T01:17:46;3.1;;;6.8;;
74483;SDS011;62942;52.462;10.846;2023-07-31T01:18:56;3.1;;;6.1;;
74483;SDS011;62942;52.462;10.846;2023-07-31T01:20:09;3;;;6.2;;
74483;SDS011;62942;52.462;10.846;2023-07-31T01:21:09;3.2;;;6.6;;
74483;SDS011;62942;52.462;10.846;2023-07-31T01:22:21;3.2;;;8.1;;
74483;SDS011;62942;52.462;10.846;2023-07-31T01:23:31;3.3;;;8.5;;
74483;SDS011;62942;52.462;10.846;2023-07-31T01:24:38;2.8;;;6.3;;
74483;SDS011;62942;52.462;10.846;2023-07-31T01:25:47;3.2;;;7.1;;
74483;SDS011;62942;52.462;10.846;2023-07-31T01:26:47;3;;;7.3;;
74483;SDS011;62942;52.462;10.846;2023-07-31T01:27:58;3.2;;;6.8;;
74483;SDS011;62942;52.462;10.846;2023-07-31T01:29:07;3.1;;;6.9;;
74483;SDS011;62942;52.462;10.846;2023-07-31T01:30:16;2.9;;;6;;
74483;SDS011;62942;52.462;10.846;2023-07-31T01:31:26;3;;;7.4;;
74483;SDS011;62942;52.462;10.846;2023-07-31T01:32:26;2.9;;;7.4;;
74483;SDS011;62942;52.462;10.846;2023-07-31T01:33:26;3;;;7.4;;
74483;SDS011;62942;52.462;10.846;2023-07-31T01:34:26;3.1;;;7;;
74483;SDS011;62942;52.462;10.846;2023-07-31T01:35:36;3.2;;;7;;
74483;SDS011;62942;52.462;10.846;2023-07-31T01:36:36;2.8;;;6.4;;
74483;SDS011;62942;52.462;10.846;2023-07-31T01:37:36;3;;;6.4;;
74483;SDS011;62942;52.462;10.846;2023-07-31T01:38:36;3;;;6.4;;
74483;SDS011;62942;52.462;10.846;2023-07-31T01:39:46;3.1;;;6.2;;
74483;SDS011;62942;52.462;10.846;2023-07-31T01:40:56;3;;;7;;
74483;SDS011;62942;52.462;10.846;2023-07-31T01:42:06;3.3;;;6.6;;
74483;SDS011;62942;52.462;10.846;2023-07-31T01:43:06;2.9;;;5.5;;
74483;SDS011;62942;52.462;10.846;2023-07-31T01:44:16;2.9;;;5.9;;
74483;SDS011;62942;52.462;10.846;2023-07-31T01:45:26;3;;;6.3;;
74483;SDS011;62942;52.462;10.846;2023-07-31T01:46:36;2.9;;;5.4;;
74483;SDS011;62942;52.462;10.846;2023-07-31T01:47:46;3.1;;;6.7;;
74483;SDS011;62942;52.462;10.846;2023-07-31T01:48:56;3;;;7.1;;
74483;SDS011;62942;52.462;10.846;2023-07-31T01:49:56;3.2;;;6.4;;
74483;SDS011;62942;52.462;10.846;2023-07-31T01:51:06;3.1;;;6.5;;
74483;SDS011;62942;52.462;10.846;2023-07-31T01:52:16;3.2;;;5.7;;
74483;SDS011;62942;52.462;10.846;2023-07-31T01:53:26;3.2;;;6.6;;
74483;SDS011;62942;52.462;10.846;2023-07-31T01:54:36;3;;;6.4;;
74483;SDS011;62942;52.462;10.846;2023-07-31T01:55:36;3.6;;;9.5;;
74483;SDS011;62942;52.462;10.846;2023-07-31T01:56:46;3.2;;;6.7;;
74483;SDS011;62942;52.462;10.846;2023-07-31T01:57:56;3.1;;;7.4;;
74483;SDS011;62942;52.462;10.846;2023-07-31T01:59:06;3.2;;;6.8;;
74483;SDS011;62942;52.462;10.846;2023-07-31T02:00:16;3.1;;;8.8;;
74483;SDS011;62942;52.462;10.846;2023-07-31T02:01:26;3.3;;;7.1;;
74483;SDS011;62942;52.462;10.846;2023-07-31T02:02:36;3.1;;;6.8;;
74483;SDS011;62942;52.462;10.846;2023-07-31T02:03:46;3.1;;;9.4;;
74483;SDS011;62942;52.462;10.846;2023-07-31T02:04:56;3.2;;;8;;
74483;SDS011;62942;52.462;10.846;2023-07-31T02:05:56;3.2;;;7;;
74483;SDS011;62942;52.462;10.846;2023-07-31T02:07:06;3.2;;;7.3;;
74483;SDS011;62942;52.462;10.846;2023-07-31T02:08:06;2.9;;;6.6;;
74483;SDS011;62942;52.462;10.846;2023-07-31T02:09:06;3.2;;;6.3;;
74483;SDS011;62942;52.462;10.846;2023-07-31T02:10:16;3.1;;;7.1;;
74483;SDS011;62942;52.462;10.846;2023-07-31T02:11:16;3.4;;;9;;
74483;SDS011;62942;52.462;10.846;2023-07-31T02:12:16;3.3;;;6.4;;
74483;SDS011;62942;52.462;10.846;2023-07-31T02:13:16;3.4;;;6.4;;
74483;SDS011;62942;52.462;10.846;2023-07-31T02:14:26;3.1;;;5.5;;
74483;SDS011;62942;52.462;10.846;2023-07-31T02:15:26;3.7;;;9.9;;
74483;SDS011;62942;52.462;10.846;2023-07-31T02:16:36;3.1;;;5.4;;
74483;SDS011;62942;52.462;10.846;2023-07-31T02:17:36;3.2;;;6.7;;
74483;SDS011;62942;52.462;10.846;2023-07-31T02:18:46;3.3;;;6.7;;
74483;SDS011;62942;52.462;10.846;2023-07-31T02:19:46;3.4;;;8.3;;
74483;SDS011;62942;52.462;10.846;2023-07-31T02:20:56;3.4;;;8.2;;
74483;SDS011;62942;52.462;10.846;2023-07-31T02:21:56;3.5;;;7.6;;
74483;SDS011;62942;52.462;10.846;2023-07-31T02:23:06;3.4;;;7.2;;
74483;SDS011;62942;52.462;10.846;2023-07-31T02:24:06;3.2;;;6.9;;
74483;SDS011;62942;52.462;10.846;2023-07-31T02:25:06;3.7;;;7.7;;
74483;SDS011;62942;52.462;10.846;2023-07-31T02:26:16;3.3;;;7.3;;
74483;SDS011;62942;52.462;10.846;2023-07-31T02:27:26;3.7;;;8.6;;
74483;SDS011;62942;52.462;10.846;2023-07-31T02:28:26;3.8;;;8.4;;
74483;SDS011;62942;52.462;10.846;2023-07-31T02:29:26;3.4;;;6.9;;
74483;SDS011;62942;52.462;10.846;2023-07-31T02:30:36;3.2;;;7.8;;
74483;SDS011;62942;52.462;10.846;2023-07-31T02:31:46;3.3;;;8.3;;
74483;SDS011;62942;52.462;10.846;2023-07-31T02:32:56;3.5;;;8.8;;
74483;SDS011;62942;52.462;10.846;2023-07-31T02:33:56;3.3;;;5.6;;
74483;SDS011;62942;52.462;10.846;2023-07-31T02:35:06;3.8;;;10.8;;
74483;SDS011;62942;52.462;10.846;2023-07-31T02:36:16;3.6;;;8;;
74483;SDS011;62942;52.462;10.846;2023-07-31T02:37:26;3.5;;;8.9;;
74483;SDS011;62942;52.462;10.846;2023-07-31T02:38:36;3.7;;;8.6;;
74483;SDS011;62942;52.462;10.846;2023-07-31T02:39:36;3.5;;;6.8;;
74483;SDS011;62942;52.462;10.846;2023-07-31T02:40:46;3.5;;;6.7;;
74483;SDS011;62942;52.462;10.846;2023-07-31T02:41:46;3.7;;;7.7;;
74483;SDS011;62942;52.462;10.846;2023-07-31T02:42:46;3.9;;;8.5;;
74483;SDS011;62942;52.462;10.846;2023-07-31T02:43:56;4.2;;;9.8;;
74483;SDS011;62942;52.462;10.846;2023-07-31T02:44:56;3.9;;;9.4;;
74483;SDS011;62942;52.462;10.846;2023-07-31T02:46:06;4;;;7.7;;
74483;SDS011;62942;52.462;10.846;2023-07-31T02:47:06;3.9;;;8.1;;
74483;SDS011;62942;52.462;10.846;2023-07-31T02:48:06;3.9;;;8.1;;
74483;SDS011;62942;52.462;10.846;2023-07-31T02:49:16;4;;;9.4;;
74483;SDS011;62942;52.462;10.846;2023-07-31T02:50:26;3.5;;;7.2;;
74483;SDS011;62942;52.462;10.846;2023-07-31T02:51:36;3.8;;;9.2;;
74483;SDS011;62942;52.462;10.846;2023-07-31T02:52:46;3.6;;;7;;
74483;SDS011;62942;52.462;10.846;2023-07-31T02:53:56;3.3;;;5.7;;
74483;SDS011;62942;52.462;10.846;2023-07-31T02:54:56;3.3;;;6.4;;
74483;SDS011;62942;52.462;10.846;2023-07-31T02:56:06;3.2;;;7.1;;
74483;SDS011;62942;52.462;10.846;2023-07-31T02:57:16;3.2;;;6.9;;
74483;SDS011;62942;52.462;10.846;2023-07-31T02:58:26;3.2;;;7.4;;
74483;SDS011;62942;52.462;10.846;2023-07-31T02:59:27;3.2;;;6.6;;
74483;SDS011;62942;52.462;10.846;2023-07-31T03:00:36;3.3;;;7.5;;
74483;SDS011;62942;52.462;10.846;2023-07-31T03:01:36;3.1;;;6;;
74483;SDS011;62942;52.462;10.846;2023-07-31T03:02:46;2.6;;;4.9;;
74483;SDS011;62942;52.462;10.846;2023-07-31T03:03:46;2.7;;;5.4;;
74483;SDS011;62942;52.462;10.846;2023-07-31T03:04:56;3;;;7.1;;
74483;SDS011;62942;52.462;10.846;2023-07-31T03:05:56;2.8;;;5.2;;
74483;SDS011;62942;52.462;10.846;2023-07-31T03:06:56;2.8;;;5.9;;
74483;SDS011;62942;52.462;10.846;2023-07-31T03:08:06;2.7;;;5.6;;
74483;SDS011;62942;52.462;10.846;2023-07-31T03:09:06;2.7;;;6;;
74483;SDS011;62942;52.462;10.846;2023-07-31T03:10:06;2.6;;;5;;
74483;SDS011;62942;52.462;10.846;2023-07-31T03:11:16;2.5;;;6.1;;
74483;SDS011;62942;52.462;10.846;2023-07-31T03:12:16;2.6;;;4.3;;
74483;SDS011;62942;52.462;10.846;2023-07-31T03:13:26;2.4;;;5.5;;
74483;SDS011;62942;52.462;10.846;2023-07-31T03:14:26;2.5;;;4.9;;
74483;SDS011;62942;52.462;10.846;2023-07-31T03:15:36;2.6;;;4.7;;
74483;SDS011;62942;52.462;10.846;2023-07-31T03:16:46;2.3;;;6.4;;
74483;SDS011;62942;52.462;10.846;2023-07-31T03:17:56;2.5;;;6;;
74483;SDS011;62942;52.462;10.846;2023-07-31T03:18:56;2.5;;;6.7;;
74483;SDS011;62942;52.462;10.846;2023-07-31T03:19:56;2.4;;;4.3;;
74483;SDS011;62942;52.462;10.846;2023-07-31T03:21:06;2.1;;;4;;
74483;SDS011;62942;52.462;10.846;2023-07-31T03:22:16;2.4;;;5.1;;
74483;SDS011;62942;52.462;10.846;2023-07-31T03:23:16;2.3;;;4.3;;
74483;SDS011;62942;52.462;10.846;2023-07-31T03:24:26;2.5;;;5.2;;
74483;SDS011;62942;52.462;10.846;2023-07-31T03:25:26;2.4;;;5.5;;
74483;SDS011;62942;52.462;10.846;2023-07-31T03:26:36;2.4;;;5.3;;
74483;SDS011;62942;52.462;10.846;2023-07-31T03:27:46;2.3;;;5.6;;
74483;SDS011;62942;52.462;10.846;2023-07-31T03:28:56;2.5;;;5.7;;
74483;SDS011;62942;52.462;10.846;2023-07-31T03:29:56;2.4;;;4.9;;
74483;SDS011;62942;52.462;10.846;2023-07-31T03:31:06;2.5;;;5.6;;
74483;SDS011;62942;52.462;10.846;2023-07-31T03:32:16;2.4;;;5;;
74483;SDS011;62942;52.462;10.846;2023-07-31T03:33:16;2.5;;;5.6;;
74483;SDS011;62942;52.462;10.846;2023-07-31T03:34:26;2.3;;;5.3;;
74483;SDS011;62942;52.462;10.846;2023-07-31T03:35:26;2.4;;;5.5;;
74483;SDS011;62942;52.462;10.846;2023-07-31T03:36:36;2.2;;;4.8;;
74483;SDS011;62942;52.462;10.846;2023-07-31T03:37:36;2.5;;;6.2;;
74483;SDS011;62942;52.462;10.846;2023-07-31T03:38:46;2.5;;;5.8;;
74483;SDS011;62942;52.462;10.846;2023-07-31T03:39:46;2.4;;;4.7;;
74483;SDS011;62942;52.462;10.846;2023-07-31T03:40:56;2.5;;;5.8;;
74483;SDS011;62942;52.462;10.846;2023-07-31T03:42:06;2.3;;;4.2;;
74483;SDS011;62942;52.462;10.846;2023-07-31T03:43:16;2.5;;;4.4;;
74483;SDS011;62942;52.462;10.846;2023-07-31T03:44:16;2.6;;;4.8;;
74483;SDS011;62942;52.462;10.846;2023-07-31T03:45:26;2.5;;;5.8;;
74483;SDS011;62942;52.462;10.846;2023-07-31T03:46:36;2.5;;;4.2;;
74483;SDS011;62942;52.462;10.846;2023-07-31T03:47:36;2.5;;;5.2;;
74483;SDS011;62942;52.462;10.846;2023-07-31T03:48:46;2.6;;;5.1;;
74483;SDS011;62942;52.462;10.846;2023-07-31T03:49:46;2.5;;;4;;
74483;SDS011;62942;52.462;10.846;2023-07-31T03:50:46;2.3;;;4.2;;
74483;SDS011;62942;52.462;10.846;2023-07-31T03:51:56;2.5;;;4;;
74483;SDS011;62942;52.462;10.846;2023-07-31T03:52:56;2.6;;;5;;
74483;SDS011;62942;52.462;10.846;2023-07-31T03:54:06;2.5;;;5.1;;
74483;SDS011;62942;52.462;10.846;2023-07-31T03:55:06;2.4;;;4.4;;
74483;SDS011;62942;52.462;10.846;2023-07-31T03:56:06;2.4;;;4.7;;
74483;SDS011;62942;52.462;10.846;2023-07-31T03:57:16;2.4;;;5.8;;
74483;SDS011;62942;52.462;10.846;2023-07-31T03:58:26;2.5;;;6.2;;
74483;SDS011;62942;52.462;10.846;2023-07-31T03:59:36;2.4;;;4.8;;
74483;SDS011;62942;52.462;10.846;2023-07-31T04:00:46;2.6;;;5.7;;
74483;SDS011;62942;52.462;10.846;2023-07-31T04:01:56;2.6;;;5.1;;
74483;SDS011;62942;52.462;10.846;2023-07-31T04:02:56;2.5;;;5.7;;
74483;SDS011;62942;52.462;10.846;2023-07-31T04:03:56;2.8;;;6.3;;
74483;SDS011;62942;52.462;10.846;2023-07-31T04:05:06;2.4;;;5.1;;
74483;SDS011;62942;52.462;10.846;2023-07-31T04:06:06;3.1;;;6.5;;
74483;SDS011;62942;52.462;10.846;2023-07-31T04:07:06;2.7;;;5.7;;
74483;SDS011;62942;52.462;10.846;2023-07-31T04:08:16;2.7;;;6.6;;
74483;SDS011;62942;52.462;10.846;2023-07-31T04:09:16;2.5;;;3.9;;
74483;SDS011;62942;52.462;10.846;2023-07-31T04:10:26;2.8;;;5.6;;
74483;SDS011;62942;52.462;10.846;2023-07-31T04:11:26;2.6;;;5.3;;
74483;SDS011;62942;52.462;10.846;2023-07-31T04:12:36;2.5;;;4.2;;
74483;SDS011;62942;52.462;10.846;2023-07-31T04:13:36;2.6;;;5.2;;
74483;SDS011;62942;52.462;10.846;2023-07-31T04:14:46;2.8;;;5.7;;
74483;SDS011;62942;52.462;10.846;2023-07-31T04:15:56;2.6;;;4.2;;
74483;SDS011;62942;52.462;10.846;2023-07-31T04:16:56;2.4;;;5.6;;
74483;SDS011;62942;52.462;10.846;2023-07-31T04:18:06;2.6;;;4.8;;
74483;SDS011;62942;52.462;10.846;2023-07-31T04:19:16;2.5;;;4.1;;
74483;SDS011;62942;52.462;10.846;2023-07-31T04:20:26;2.6;;;6.3;;
74483;SDS011;62942;52.462;10.846;2023-07-31T04:21:26;2.5;;;5.3;;
74483;SDS011;62942;52.462;10.846;2023-07-31T04:22:36;2.5;;;5.1;;
74483;SDS011;62942;52.462;10.846;2023-07-31T04:23:36;2.4;;;4.7;;
74483;SDS011;62942;52.462;10.846;2023-07-31T04:24:46;2.5;;;4.5;;
74483;SDS011;62942;52.462;10.846;2023-07-31T04:25:56;2.5;;;4.9;;
74483;SDS011;62942;52.462;10.846;2023-07-31T04:27:05;2.5;;;5.9;;
74483;SDS011;62942;52.462;10.846;2023-07-31T04:28:06;2.6;;;5;;
74483;SDS011;62942;52.462;10.846;2023-07-31T04:29:16;2.3;;;4.1;;
74483;SDS011;62942;52.462;10.846;2023-07-31T04:30:26;2.4;;;5.3;;
74483;SDS011;62942;52.462;10.846;2023-07-31T04:31:36;2.4;;;4.7;;
74483;SDS011;62942;52.462;10.846;2023-07-31T04:32:46;2.4;;;5.5;;
74483;SDS011;62942;52.462;10.846;2023-07-31T04:33:56;2.5;;;5.5;;
74483;SDS011;62942;52.462;10.846;2023-07-31T04:35:06;2.6;;;10.6;;
74483;SDS011;62942;52.462;10.846;2023-07-31T04:36:15;2.4;;;5.2;;
74483;SDS011;62942;52.462;10.846;2023-07-31T04:37:15;2.6;;;5.3;;
74483;SDS011;62942;52.462;10.846;2023-07-31T04:38:26;2.4;;;5.2;;
74483;SDS011;62942;52.462;10.846;2023-07-31T04:39:36;2.4;;;5.5;;
74483;SDS011;62942;52.462;10.846;2023-07-31T04:40:46;2.2;;;5.4;;
74483;SDS011;62942;52.462;10.846;2023-07-31T04:41:56;2.5;;;4.9;;
74483;SDS011;62942;52.462;10.846;2023-07-31T04:43:06;2.5;;;4.8;;
74483;SDS011;62942;52.462;10.846;2023-07-31T04:44:15;2.4;;;4.2;;
74483;SDS011;62942;52.462;10.846;2023-07-31T04:45:26;2.3;;;5.2;;
74483;SDS011;62942;52.462;10.846;2023-07-31T04:46:35;2.5;;;4.2;;
74483;SDS011;62942;52.462;10.846;2023-07-31T04:47:46;2.2;;;4;;
74483;SDS011;62942;52.462;10.846;2023-07-31T04:48:56;2.3;;;4.9;;
74483;SDS011;62942;52.462;10.846;2023-07-31T04:49:55;2.5;;;5.7;;
74483;SDS011;62942;52.462;10.846;2023-07-31T04:50:56;2.7;;;6.8;;
74483;SDS011;62942;52.462;10.846;2023-07-31T04:51:55;2.3;;;4.9;;
74483;SDS011;62942;52.462;10.846;2023-07-31T04:53:05;2.4;;;4.7;;
74483;SDS011;62942;52.462;10.846;2023-07-31T04:54:16;2;;;4.1;;
74483;SDS011;62942;52.462;10.846;2023-07-31T04:55:25;2.2;;;3.7;;
74483;SDS011;62942;52.462;10.846;2023-07-31T04:56:35;2.2;;;5;;
74483;SDS011;62942;52.462;10.846;2023-07-31T04:57:35;2.3;;;4.7;;
74483;SDS011;62942;52.462;10.846;2023-07-31T04:58:46;2.4;;;7.8;;
74483;SDS011;62942;52.462;10.846;2023-07-31T04:59:55;2.1;;;4.6;;
74483;SDS011;62942;52.462;10.846;2023-07-31T05:01:06;2.2;;;4.5;;
74483;SDS011;62942;52.462;10.846;2023-07-31T05:02:15;2.1;;;3.7;;
74483;SDS011;62942;52.462;10.846;2023-07-31T05:03:16;2;;;4.1;;
74483;SDS011;62942;52.462;10.846;2023-07-31T05:04:15;2.2;;;4.1;;
74483;SDS011;62942;52.462;10.846;2023-07-31T05:05:25;2.1;;;4.4;;
74483;SDS011;62942;52.462;10.846;2023-07-31T05:06:35;2;;;5.1;;
74483;SDS011;62942;52.462;10.846;2023-07-31T05:07:35;2;;;3.8;;
74483;SDS011;62942;52.462;10.846;2023-07-31T05:08:45;2.1;;;4.1;;
74483;SDS011;62942;52.462;10.846;2023-07-31T05:09:55;1.9;;;4.1;;
74483;SDS011;62942;52.462;10.846;2023-07-31T05:10:55;1.8;;;3.4;;
74483;SDS011;62942;52.462;10.846;2023-07-31T05:12:06;2.1;;;4.9;;
74483;SDS011;62942;52.462;10.846;2023-07-31T05:13:15;1.9;;;4.6;;
74483;SDS011;62942;52.462;10.846;2023-07-31T05:14:25;2;;;4;;
74483;SDS011;62942;52.462;10.846;2023-07-31T05:15:35;1.9;;;4;;
74483;SDS011;62942;52.462;10.846;2023-07-31T05:16:35;1.9;;;3.4;;
74483;SDS011;62942;52.462;10.846;2023-07-31T05:17:45;1.8;;;3.2;;
74483;SDS011;62942;52.462;10.846;2023-07-31T05:18:46;1.8;;;4.1;;
74483;SDS011;62942;52.462;10.846;2023-07-31T05:19:56;1.9;;;3.8;;
74483;SDS011;62942;52.462;10.846;2023-07-31T05:21:05;1.7;;;3.6;;
74483;SDS011;62942;52.462;10.846;2023-07-31T05:22:05;1.7;;;3.7;;
74483;SDS011;62942;52.462;10.846;2023-07-31T05:23:15;1.7;;;3.1;;
74483;SDS011;62942;52.462;10.846;2023-07-31T05:24:25;1.6;;;3.7;;
74483;SDS011;62942;52.462;10.846;2023-07-31T05:25:25;1.6;;;2.9;;
74483;SDS011;62942;52.462;10.846;2023-07-31T05:26:35;1.7;;;6.7;;
74483;SDS011;62942;52.462;10.846;2023-07-31T05:27:35;1.5;;;4.1;;
74483;SDS011;62942;52.462;10.846;2023-07-31T05:28:36;1.6;;;3.9;;
74483;SDS011;62942;52.462;10.846;2023-07-31T05:29:45;1.6;;;2.7;;
74483;SDS011;62942;52.462;10.846;2023-07-31T05:30:58;1.5;;;3.5;;
74483;SDS011;62942;52.462;10.846;2023-07-31T05:32:06;1.5;;;3.6;;
74483;SDS011;62942;52.462;10.846;2023-07-31T05:33:15;1.4;;;3;;
74483;SDS011;62942;52.462;10.846;2023-07-31T05:34:15;1.5;;;2.8;;
74483;SDS011;62942;52.462;10.846;2023-07-31T05:35:25;1.5;;;3.3;;
74483;SDS011;62942;52.462;10.846;2023-07-31T05:36:35;1.6;;;3.1;;
74483;SDS011;62942;52.462;10.846;2023-07-31T05:37:45;1.4;;;2.9;;
74483;SDS011;62942;52.462;10.846;2023-07-31T05:38:45;1.4;;;3.2;;
74483;SDS011;62942;52.462;10.846;2023-07-31T05:39:45;1.5;;;3.5;;
74483;SDS011;62942;52.462;10.846;2023-07-31T05:40:55;1.4;;;3.4;;
74483;SDS011;62942;52.462;10.846;2023-07-31T05:42:05;1.4;;;2.9;;
74483;SDS011;62942;52.462;10.846;2023-07-31T05:43:15;1.5;;;3;;
74483;SDS011;62942;52.462;10.846;2023-07-31T05:44:15;1.7;;;3.9;;
74483;SDS011;62942;52.462;10.846;2023-07-31T05:45:25;1.6;;;2.8;;
74483;SDS011;62942;52.462;10.846;2023-07-31T05:46:35;1.4;;;3.6;;
74483;SDS011;62942;52.462;10.846;2023-07-31T05:47:45;1.4;;;3.2;;
74483;SDS011;62942;52.462;10.846;2023-07-31T05:48:55;1.5;;;4.2;;
74483;SDS011;62942;52.462;10.846;2023-07-31T05:50:06;1.4;;;2.4;;
74483;SDS011;62942;52.462;10.846;2023-07-31T05:51:15;1.3;;;2.7;;
74483;SDS011;62942;52.462;10.846;2023-07-31T05:52:25;1.2;;;2.5;;
74483;SDS011;62942;52.462;10.846;2023-07-31T05:53:35;1.3;;;3.9;;
74483;SDS011;62942;52.462;10.846;2023-07-31T05:54:35;1.3;;;3;;
74483;SDS011;62942;52.462;10.846;2023-07-31T05:55:35;1.2;;;2.2;;
74483;SDS011;62942;52.462;10.846;2023-07-31T05:56:45;1.2;;;3.1;;
74483;SDS011;62942;52.462;10.846;2023-07-31T05:57:55;1.3;;;3.7;;
74483;SDS011;62942;52.462;10.846;2023-07-31T05:59:05;1.3;;;2.6;;
74483;SDS011;62942;52.462;10.846;2023-07-31T06:00:06;1.4;;;3.2;;
74483;SDS011;62942;52.462;10.846;2023-07-31T06:01:15;1.4;;;3.3;;
74483;SDS011;62942;52.462;10.846;2023-07-31T06:02:25;1.4;;;2.6;;
74483;SDS011;62942;52.462;10.846;2023-07-31T06:03:35;1.3;;;2.6;;
74483;SDS011;62942;52.462;10.846;2023-07-31T06:04:45;1.4;;;2.6;;
74483;SDS011;62942;52.462;10.846;2023-07-31T06:05:55;1.4;;;2.7;;
74483;SDS011;62942;52.462;10.846;2023-07-31T06:07:05;1.3;;;3.4;;
74483;SDS011;62942;52.462;10.846;2023-07-31T06:08:15;1.4;;;3;;
74483;SDS011;62942;52.462;10.846;2023-07-31T06:09:15;1.3;;;2.6;;
74483;SDS011;62942;52.462;10.846;2023-07-31T06:10:15;1.5;;;3.4;;
74483;SDS011;62942;52.462;10.846;2023-07-31T06:11:25;1.4;;;3;;
74483;SDS011;62942;52.462;10.846;2023-07-31T06:12:35;1.5;;;2.7;;
74483;SDS011;62942;52.462;10.846;2023-07-31T06:13:45;1.3;;;2.4;;
74483;SDS011;62942;52.462;10.846;2023-07-31T06:14:45;1.2;;;3.5;;
74483;SDS011;62942;52.462;10.846;2023-07-31T06:15:45;1.3;;;2.7;;
74483;SDS011;62942;52.462;10.846;2023-07-31T06:16:55;1.4;;;2.5;;
74483;SDS011;62942;52.462;10.846;2023-07-31T06:17:55;1.2;;;2;;
74483;SDS011;62942;52.462;10.846;2023-07-31T06:19:05;1.2;;;2.2;;
74483;SDS011;62942;52.462;10.846;2023-07-31T06:20:15;1.4;;;2.7;;
74483;SDS011;62942;52.462;10.846;2023-07-31T06:21:25;1.5;;;2.7;;
74483;SDS011;62942;52.462;10.846;2023-07-31T06:22:35;1.3;;;2.4;;
74483;SDS011;62942;52.462;10.846;2023-07-31T06:23:35;1.4;;;2.5;;
74483;SDS011;62942;52.462;10.846;2023-07-31T06:24:45;1.4;;;2.5;;
74483;SDS011;62942;52.462;10.846;2023-07-31T06:25:56;1.4;;;3.2;;
74483;SDS011;62942;52.462;10.846;2023-07-31T06:27:06;1.4;;;2.9;;
74483;SDS011;62942;52.462;10.846;2023-07-31T06:28:15;1.3;;;3.1;;
74483;SDS011;62942;52.462;10.846;2023-07-31T06:29:15;1.6;;;3.5;;
74483;SDS011;62942;52.462;10.846;2023-07-31T06:30:25;1.3;;;2.2;;
74483;SDS011;62942;52.462;10.846;2023-07-31T06:31:25;1.4;;;2.9;;
74483;SDS011;62942;52.462;10.846;2023-07-31T06:32:25;1.3;;;2.4;;
74483;SDS011;62942;52.462;10.846;2023-07-31T06:33:25;1.3;;;2.6;;
74483;SDS011;62942;52.462;10.846;2023-07-31T06:34:35;1.3;;;2.5;;
74483;SDS011;62942;52.462;10.846;2023-07-31T06:35:35;1.2;;;2.6;;
74483;SDS011;62942;52.462;10.846;2023-07-31T06:36:46;1.3;;;2.7;;
74483;SDS011;62942;52.462;10.846;2023-07-31T06:37:55;1.4;;;2.4;;
74483;SDS011;62942;52.462;10.846;2023-07-31T06:39:05;1.3;;;2.6;;
74483;SDS011;62942;52.462;10.846;2023-07-31T06:40:06;1.3;;;2.9;;
74483;SDS011;62942;52.462;10.846;2023-07-31T06:41:15;1.2;;;3;;
74483;SDS011;62942;52.462;10.846;2023-07-31T06:42:15;1.3;;;2.6;;
74483;SDS011;62942;52.462;10.846;2023-07-31T06:43:15;1.2;;;2.4;;
74483;SDS011;62942;52.462;10.846;2023-07-31T06:44:15;1.3;;;2.5;;
74483;SDS011;62942;52.462;10.846;2023-07-31T06:45:25;1.4;;;2.5;;
74483;SDS011;62942;52.462;10.846;2023-07-31T06:46:35;1.4;;;3;;
74483;SDS011;62942;52.462;10.846;2023-07-31T06:47:45;1.4;;;2.6;;